Time;durP1;ratioP1;P1;durP2;ratioP2;P2;SDS_P1;SDS_P2;PMS_P1;PMS_P2;Temp;Humidity;BMP_temperature;BMP_pressure;BME280_temperature;BME280_humidity;BME280_pressure;Samples;Min_cycle;Max_cycle;Signal;HPM_P1;HPM_P2
2021/09/09 00:00:37;;;;;;;15.43;9.83;;;18.90;87.80;;;;;;5029391;28;20497;-75
2021/09/09 00:03:03;;;;;;;14.20;10.47;;;18.90;88.00;;;;;;5028215;28;20195;-74
2021/09/09 00:05:28;;;;;;;19.03;10.60;;;18.90;88.00;;;;;;5029106;28;20447;-73
2021/09/09 00:07:54;;;;;;;16.57;11.00;;;18.90;87.80;;;;;;5029455;28;20419;-74
2021/09/09 00:10:20;;;;;;;18.57;11.23;;;18.90;87.80;;;;;;5028145;28;20216;-74
2021/09/09 00:12:46;;;;;;;16.90;11.40;;;18.80;88.00;;;;;;5027377;28;20191;-75
2021/09/09 00:15:12;;;;;;;15.10;10.50;;;18.80;88.10;;;;;;5028885;28;20679;-75
2021/09/09 00:17:39;;;;;;;16.93;10.70;;;18.80;88.10;;;;;;5028071;28;20461;-74
2021/09/09 00:20:07;;;;;;;18.57;11.17;;;18.80;88.10;;;;;;5029412;28;20191;-76
2021/09/09 00:22:32;;;;;;;15.80;10.40;;;18.80;88.30;;;;;;5028249;28;20769;-75
2021/09/09 00:24:59;;;;;;;14.97;9.70;;;18.80;88.40;;;;;;5029091;28;20447;-76
2021/09/09 00:27:24;;;;;;;14.97;9.60;;;18.70;88.60;;;;;;5028942;28;20179;-75
2021/09/09 00:29:50;;;;;;;17.30;10.93;;;18.70;88.60;;;;;;5029195;28;20764;-75
2021/09/09 00:32:16;;;;;;;17.50;10.70;;;18.70;88.60;;;;;;5028613;28;20248;-75
2021/09/09 00:34:41;;;;;;;16.30;10.50;;;18.70;88.60;;;;;;5030170;28;20213;-74
2021/09/09 00:37:07;;;;;;;16.03;10.93;;;18.70;88.70;;;;;;5029204;28;20199;-74
2021/09/09 00:39:33;;;;;;;18.00;10.47;;;18.70;88.60;;;;;;5031038;28;20231;-74
2021/09/09 00:41:59;;;;;;;16.37;11.80;;;18.70;88.40;;;;;;5038486;28;20685;-73
2021/09/09 00:44:28;;;;;;;17.37;11.00;;;18.60;88.40;;;;;;5033132;28;20203;-75
2021/09/09 00:46:58;;;;;;;17.13;10.73;;;18.60;88.70;;;;;;5032522;28;20197;-74
2021/09/09 00:49:24;;;;;;;17.23;10.50;;;18.60;88.60;;;;;;5032341;28;20780;-73
2021/09/09 00:51:50;;;;;;;17.43;10.77;;;18.60;88.60;;;;;;5029937;28;20472;-73
2021/09/09 00:54:16;;;;;;;18.13;11.10;;;18.50;88.60;;;;;;5031953;28;20569;-73
2021/09/09 00:56:41;;;;;;;17.97;11.17;;;18.50;88.40;;;;;;5032330;28;20186;-75
2021/09/09 00:59:07;;;;;;;16.27;10.07;;;18.50;88.40;;;;;;5032538;28;20182;-73
2021/09/09 01:01:34;;;;;;;16.63;10.67;;;18.50;88.40;;;;;;5036804;28;20187;-74
2021/09/09 01:03:59;;;;;;;16.47;10.13;;;18.50;88.40;;;;;;5034817;28;20450;-73
2021/09/09 01:06:25;;;;;;;15.10;10.67;;;18.40;88.30;;;;;;5032420;28;20505;-74
2021/09/09 01:08:51;;;;;;;16.37;9.37;;;18.40;88.30;;;;;;5031778;28;20213;-73
2021/09/09 01:11:17;;;;;;;19.17;10.80;;;18.40;88.60;;;;;;5034464;28;20502;-73
2021/09/09 01:13:52;;;;;;;16.03;9.53;;;18.40;88.70;;;;;;5032349;28;20620;-73
2021/09/09 01:16:19;;;;;;;16.60;10.33;;;18.40;88.70;;;;;;5032560;28;20186;-73
2021/09/09 01:18:45;;;;;;;14.90;10.50;;;18.40;88.30;;;;;;5031595;28;20418;-75
2021/09/09 01:21:10;;;;;;;20.37;10.70;;;18.40;88.00;;;;;;5032562;28;20871;-75
2021/09/09 01:23:37;;;;;;;14.23;10.03;;;18.40;87.80;;;;;;5031062;28;20190;-74
2021/09/09 01:26:05;;;;;;;17.23;10.50;;;18.40;87.60;;;;;;5032750;28;20179;-74
2021/09/09 01:28:31;;;;;;;20.33;11.70;;;18.40;87.30;;;;;;5032426;28;20821;-74
2021/09/09 01:30:57;;;;;;;18.23;9.63;;;18.40;87.10;;;;;;5032936;28;20457;-75
2021/09/09 01:33:22;;;;;;;16.47;10.87;;;18.40;87.30;;;;;;5031033;28;20183;-75
2021/09/09 01:35:48;;;;;;;16.27;10.30;;;18.50;86.90;;;;;;5028060;28;20704;-76
2021/09/09 01:38:22;;;;;;;15.07;9.70;;;18.50;86.80;;;;;;5030362;28;20212;-74
2021/09/09 01:40:47;;;;;;;19.73;10.70;;;18.50;87.00;;;;;;5032267;28;20733;-74
2021/09/09 01:43:13;;;;;;;15.73;10.50;;;18.60;86.80;;;;;;5031810;28;20516;-74
2021/09/09 01:45:39;;;;;;;17.60;9.87;;;18.50;86.90;;;;;;5031760;28;20237;-75
2021/09/09 01:48:05;;;;;;;15.30;9.40;;;18.50;86.90;;;;;;5031942;28;20513;-73
2021/09/09 01:50:31;;;;;;;16.90;10.10;;;18.50;87.00;;;;;;5031040;28;20190;-76
2021/09/09 01:52:57;;;;;;;16.67;9.43;;;18.50;87.00;;;;;;5032350;28;20428;-72
2021/09/09 01:55:23;;;;;;;16.70;10.50;;;18.50;87.40;;;;;;5032252;28;20245;-73
2021/09/09 01:57:48;;;;;;;17.20;10.10;;;18.50;87.30;;;;;;5032754;28;20198;-74
2021/09/09 02:00:15;;;;;;;14.60;10.50;;;18.40;87.40;;;;;;5031734;28;20672;-77
2021/09/09 02:02:41;;;;;;;16.43;11.13;;;18.40;87.40;;;;;;5025720;28;20227;-75
2021/09/09 02:05:07;;;;;;;16.80;10.43;;;18.40;87.60;;;;;;5029317;28;21010;-73
2021/09/09 02:07:33;;;;;;;18.93;10.77;;;18.40;87.60;;;;;;5032654;28;20513;-75
2021/09/09 02:09:59;;;;;;;17.33;10.77;;;18.30;87.70;;;;;;5025841;28;20637;-74
2021/09/09 02:12:24;;;;;;;17.70;11.07;;;18.40;87.70;;;;;;5019847;28;20646;-75
2021/09/09 02:14:50;;;;;;;20.03;9.90;;;18.30;87.70;;;;;;5025298;28;20207;-74
2021/09/09 02:17:16;;;;;;;19.03;10.63;;;18.30;87.80;;;;;;5031784;28;20199;-74
2021/09/09 02:19:42;;;;;;;18.73;10.63;;;18.30;87.80;;;;;;5031733;28;20190;-73
2021/09/09 02:22:07;;;;;;;17.57;11.43;;;18.20;88.00;;;;;;5026709;28;20197;-75
2021/09/09 02:24:33;;;;;;;15.73;10.37;;;18.20;88.10;;;;;;5030007;28;20828;-74
2021/09/09 02:26:59;;;;;;;15.53;10.47;;;18.10;88.40;;;;;;5031149;28;20249;-74
2021/09/09 02:29:24;;;;;;;15.40;10.20;;;18.10;88.40;;;;;;5031497;28;20192;-73
2021/09/09 02:31:50;;;;;;;20.40;11.63;;;18.10;88.70;;;;;;5030782;28;20209;-75
2021/09/09 02:34:16;;;;;;;18.40;10.63;;;18.10;88.90;;;;;;5030701;28;20308;-75
2021/09/09 02:36:41;;;;;;;18.00;10.10;;;18.00;88.90;;;;;;5031037;28;20205;-74
2021/09/09 02:39:07;;;;;;;18.00;10.37;;;18.00;89.20;;;;;;5030999;28;20194;-74
2021/09/09 02:41:33;;;;;;;18.83;10.80;;;18.00;89.00;;;;;;5030458;28;20680;-75
2021/09/09 02:43:58;;;;;;;16.13;10.23;;;18.00;89.20;;;;;;5030436;28;20237;-73
2021/09/09 02:46:24;;;;;;;17.90;10.50;;;18.00;89.30;;;;;;5022028;28;20707;-75
2021/09/09 02:48:51;;;;;;;16.77;10.10;;;18.00;89.30;;;;;;5030104;28;20190;-73
2021/09/09 02:51:17;;;;;;;19.43;10.33;;;18.00;89.30;;;;;;5030933;28;20297;-74
2021/09/09 02:53:43;;;;;;;16.30;10.40;;;17.90;89.20;;;;;;5030433;28;20428;-74
2021/09/09 02:56:09;;;;;;;24.40;9.63;;;18.00;89.00;;;;;;5030763;28;20232;-75
2021/09/09 02:58:35;;;;;;;17.87;10.17;;;17.90;89.20;;;;;;5031231;28;20193;-74
2021/09/09 03:01:01;;;;;;;17.73;11.00;;;17.90;89.30;;;;;;5030239;28;20421;-74
2021/09/09 03:03:26;;;;;;;15.67;9.80;;;17.90;89.30;;;;;;5030402;28;20186;-75
2021/09/09 03:05:52;;;;;;;15.93;10.83;;;17.90;89.50;;;;;;5030601;28;21007;-73
2021/09/09 03:08:18;;;;;;;14.73;10.40;;;17.90;89.50;;;;;;5030881;28;20198;-73
2021/09/09 03:10:43;;;;;;;14.77;10.17;;;17.90;89.50;;;;;;5030581;28;20646;-74
2021/09/09 03:13:09;;;;;;;19.70;10.00;;;17.80;89.50;;;;;;5029567;28;20644;-76
2021/09/09 03:15:35;;;;;;;16.40;9.60;;;17.80;89.60;;;;;;5030813;28;20229;-74
2021/09/09 03:18:01;;;;;;;15.40;10.63;;;17.80;89.70;;;;;;5030465;28;20177;-76
2021/09/09 03:20:26;;;;;;;16.73;10.90;;;17.80;89.70;;;;;;5030665;28;20259;-73
2021/09/09 03:22:52;;;;;;;15.87;11.17;;;17.80;89.70;;;;;;5029751;28;20192;-74
2021/09/09 03:25:18;;;;;;;16.60;10.63;;;17.80;89.90;;;;;;5029694;28;20393;-75
2021/09/09 03:27:44;;;;;;;17.27;10.23;;;17.70;90.00;;;;;;5030839;28;20239;-73
2021/09/09 03:30:10;;;;;;;16.53;10.67;;;17.70;90.00;;;;;;5029955;28;20213;-73
2021/09/09 03:32:36;;;;;;;17.67;11.43;;;17.70;90.10;;;;;;5030199;28;20214;-73
2021/09/09 03:35:02;;;;;;;14.30;10.13;;;17.70;90.10;;;;;;5031066;28;20449;-73
2021/09/09 03:37:28;;;;;;;16.83;10.37;;;17.70;90.10;;;;;;5030783;28;20205;-73
2021/09/09 03:39:53;;;;;;;17.33;10.67;;;17.70;90.20;;;;;;5031098;28;20432;-74
2021/09/09 03:42:19;;;;;;;16.37;10.53;;;17.70;90.20;;;;;;5030182;28;20200;-75
2021/09/09 03:44:47;;;;;;;17.27;11.80;;;17.70;90.10;;;;;;5031103;28;20214;-73
2021/09/09 03:47:14;;;;;;;18.63;11.20;;;17.70;90.20;;;;;;5032099;28;20188;-74
2021/09/09 03:49:39;;;;;;;21.80;12.20;;;17.80;90.20;;;;;;5025323;28;20453;-74
2021/09/09 03:52:05;;;;;;;16.50;10.70;;;17.80;90.10;;;;;;5029125;28;21071;-74
2021/09/09 03:54:31;;;;;;;17.83;10.70;;;17.70;90.20;;;;;;5030884;28;20219;-74
2021/09/09 03:56:57;;;;;;;23.80;11.70;;;17.70;90.20;;;;;;5029325;28;20431;-74
2021/09/09 03:59:23;;;;;;;15.73;10.67;;;17.70;90.30;;;;;;5030965;28;20189;-75
2021/09/09 04:01:48;;;;;;;18.77;11.33;;;17.70;90.20;;;;;;5029201;28;20272;-74
2021/09/09 04:04:14;;;;;;;23.90;12.03;;;17.70;90.20;;;;;;5036341;28;20208;-74
2021/09/09 04:06:40;;;;;;;17.20;11.60;;;17.80;90.00;;;;;;5035572;28;20190;-74
2021/09/09 04:09:06;;;;;;;20.67;11.57;;;17.80;89.90;;;;;;5034214;28;20672;-74
2021/09/09 04:11:32;;;;;;;19.77;12.20;;;17.80;89.60;;;;;;5028991;28;20618;-75
2021/09/09 04:13:57;;;;;;;19.53;11.40;;;17.80;89.70;;;;;;5030901;28;20235;-74
2021/09/09 04:16:23;;;;;;;18.80;11.67;;;17.80;89.70;;;;;;5033592;28;20429;-75
2021/09/09 04:18:49;;;;;;;17.43;11.33;;;17.90;89.30;;;;;;5032522;28;20273;-76
2021/09/09 04:21:15;;;;;;;20.43;12.63;;;17.90;89.20;;;;;;5033007;28;20283;-74
2021/09/09 04:23:40;;;;;;;17.80;11.70;;;18.00;88.90;;;;;;5031504;28;20193;-74
2021/09/09 04:26:06;;;;;;;16.53;10.43;;;18.00;88.30;;;;;;5033170;28;20420;-73
2021/09/09 04:28:32;;;;;;;18.17;10.80;;;18.10;88.30;;;;;;5032432;28;20276;-74
2021/09/09 04:30:58;;;;;;;19.83;11.20;;;18.10;88.30;;;;;;5032390;28;20237;-75
2021/09/09 04:33:23;;;;;;;16.23;11.00;;;18.10;88.30;;;;;;5032785;28;20181;-74
2021/09/09 04:35:49;;;;;;;19.97;11.70;;;18.10;88.30;;;;;;5032239;28;20246;-73
2021/09/09 04:38:15;;;;;;;21.27;12.03;;;18.10;88.40;;;;;;5032989;28;20233;-74
2021/09/09 04:40:41;;;;;;;18.40;10.83;;;18.10;88.30;;;;;;5029571;28;20583;-75
2021/09/09 04:43:06;;;;;;;15.53;10.83;;;18.20;88.00;;;;;;5031621;28;20271;-73
2021/09/09 04:45:32;;;;;;;16.87;10.23;;;18.20;87.80;;;;;;5029398;28;20995;-73
2021/09/09 04:47:58;;;;;;;17.97;10.90;;;18.20;87.80;;;;;;5028637;28;20191;-74
2021/09/09 04:50:24;;;;;;;19.53;12.33;;;18.30;87.70;;;;;;5033086;28;20198;-75
2021/09/09 04:52:50;;;;;;;23.70;12.07;;;18.30;87.80;;;;;;5033469;28;20552;-75
2021/09/09 04:55:16;;;;;;;16.00;10.80;;;18.30;87.80;;;;;;5036758;28;20441;-72
2021/09/09 04:57:42;;;;;;;17.70;11.00;;;18.20;87.80;;;;;;5035882;28;20185;-74
2021/09/09 05:00:08;;;;;;;16.83;11.27;;;18.20;87.80;;;;;;5035838;28;20427;-73
2021/09/09 05:02:34;;;;;;;18.37;11.70;;;18.20;88.00;;;;;;5035095;28;20225;-75
2021/09/09 05:05:00;;;;;;;18.90;11.27;;;18.20;87.80;;;;;;5034152;28;20452;-75
2021/09/09 05:07:25;;;;;;;20.97;12.00;;;18.20;87.80;;;;;;5034574;28;20269;-74
2021/09/09 05:09:51;;;;;;;17.70;11.63;;;18.20;87.80;;;;;;5029838;28;20218;-76
2021/09/09 05:12:17;;;;;;;19.70;11.80;;;18.20;88.00;;;;;;5031335;28;20532;-75
2021/09/09 05:14:43;;;;;;;19.90;10.80;;;18.30;87.80;;;;;;5033160;28;20203;-75
2021/09/09 05:17:08;;;;;;;19.87;12.13;;;18.30;87.70;;;;;;5035432;28;20276;-74
2021/09/09 05:19:35;;;;;;;20.40;12.53;;;18.30;87.80;;;;;;5031115;28;20205;-75
2021/09/09 05:22:01;;;;;;;21.07;12.50;;;18.30;87.80;;;;;;5031835;28;20560;-77
2021/09/09 05:24:27;;;;;;;21.80;12.07;;;18.40;87.70;;;;;;5030358;28;20452;-76
2021/09/09 05:26:53;;;;;;;21.10;12.37;;;18.30;87.80;;;;;;5032290;28;20880;-75
2021/09/09 05:29:22;;;;;;;17.87;12.00;;;18.30;87.80;;;;;;5032506;28;20193;-76
2021/09/09 05:31:48;;;;;;;17.93;11.63;;;18.30;87.80;;;;;;5032708;28;20251;-74
2021/09/09 05:34:14;;;;;;;27.17;12.03;;;18.30;87.80;;;;;;5032578;28;21012;-75
2021/09/09 05:36:39;;;;;;;29.50;12.43;;;18.30;87.80;;;;;;5032649;28;20208;-74
2021/09/09 05:39:05;;;;;;;19.73;11.07;;;18.30;88.00;;;;;;5032900;28;20183;-75
2021/09/09 05:41:31;;;;;;;16.67;11.63;;;18.40;87.80;;;;;;5032012;28;20189;-75
2021/09/09 05:43:56;;;;;;;22.90;12.40;;;18.40;87.70;;;;;;5031219;28;20213;-76
2021/09/09 05:46:22;;;;;;;21.40;12.47;;;18.40;87.80;;;;;;5031712;28;20419;-76
2021/09/09 05:48:48;;;;;;;20.20;11.33;;;18.50;87.70;;;;;;5027955;28;20667;-76
2021/09/09 05:51:14;;;;;;;20.70;12.40;;;18.60;87.40;;;;;;5029276;28;20200;-75
2021/09/09 05:53:39;;;;;;;20.97;11.33;;;18.70;87.10;;;;;;5031411;28;20192;-75
2021/09/09 05:56:05;;;;;;;23.20;12.83;;;18.90;86.30;;;;;;5031546;28;20192;-76
2021/09/09 05:58:31;;;;;;;19.83;12.10;;;19.00;85.90;;;;;;5028308;28;20230;-75
2021/09/09 06:00:57;;;;;;;28.23;12.67;;;19.00;85.60;;;;;;5031746;28;20423;-76
2021/09/09 06:03:25;;;;;;;19.70;10.90;;;19.10;85.30;;;;;;5031875;28;20185;-75
2021/09/09 06:05:53;;;;;;;23.20;11.90;;;19.20;85.00;;;;;;5028484;28;20204;-74
2021/09/09 06:08:19;;;;;;;16.87;10.77;;;19.20;85.00;;;;;;5031902;28;20428;-75
2021/09/09 06:10:45;;;;;;;22.13;11.83;;;19.20;84.90;;;;;;5026475;28;20448;-74
2021/09/09 06:13:11;;;;;;;21.20;11.13;;;19.30;83.40;;;;;;5029727;28;20969;-76
2021/09/09 06:15:37;;;;;;;20.50;10.70;;;19.50;83.10;;;;;;5031243;28;20612;-78
2021/09/09 06:18:03;;;;;;;19.13;11.13;;;19.60;83.10;;;;;;5032166;28;20177;-74
2021/09/09 06:20:28;;;;;;;17.70;11.20;;;19.80;82.50;;;;;;5024411;28;20481;-75
2021/09/09 06:22:54;;;;;;;15.73;11.27;;;19.90;82.20;;;;;;5026255;28;20422;-76
2021/09/09 06:25:20;;;;;;;28.10;11.43;;;20.10;81.40;;;;;;5030876;28;20213;-74
2021/09/09 06:27:45;;;;;;;21.60;11.60;;;20.20;79.90;;;;;;5031353;28;20197;-75
2021/09/09 06:30:12;;;;;;;16.93;10.00;;;20.40;79.00;;;;;;5030031;28;20187;-74
2021/09/09 06:32:37;;;;;;;17.83;10.00;;;20.60;79.20;;;;;;5031314;28;20659;-76
2021/09/09 06:35:04;;;;;;;17.50;10.57;;;20.70;78.90;;;;;;5028976;28;20524;-78
2021/09/09 06:37:29;;;;;;;17.97;10.70;;;20.80;78.00;;;;;;5030808;28;20241;-75
2021/09/09 06:39:55;;;;;;;14.50;9.60;;;20.90;76.80;;;;;;5028157;28;20417;-74
2021/09/09 06:42:22;;;;;;;16.50;10.43;;;21.00;76.40;;;;;;5030512;28;20597;-74
2021/09/09 06:44:48;;;;;;;18.20;10.27;;;21.10;76.50;;;;;;5026993;28;20207;-75
2021/09/09 06:47:14;;;;;;;20.63;10.40;;;21.10;76.70;;;;;;5032111;28;20424;-75
2021/09/09 06:49:40;;;;;;;13.50;10.10;;;21.10;76.80;;;;;;5031555;28;20805;-75
2021/09/09 06:52:06;;;;;;;14.67;9.90;;;21.10;77.00;;;;;;5032009;28;20470;-75
2021/09/09 06:54:32;;;;;;;19.47;11.00;;;21.10;77.00;;;;;;5032406;28;20267;-74
2021/09/09 06:56:57;;;;;;;15.77;10.37;;;21.10;76.80;;;;;;5031026;28;20523;-74
2021/09/09 06:59:23;;;;;;;16.70;11.17;;;21.10;76.80;;;;;;5032256;28;20663;-76
2021/09/09 07:01:49;;;;;;;17.63;12.10;;;21.20;76.80;;;;;;5038115;28;20197;-75
2021/09/09 07:04:14;;;;;;;19.43;10.87;;;21.20;76.80;;;;;;5026793;28;20576;-76
2021/09/09 07:06:40;;;;;;;16.40;10.90;;;21.20;76.50;;;;;;5023865;28;20188;-76
2021/09/09 07:09:06;;;;;;;22.00;12.20;;;21.30;75.40;;;;;;5029325;28;20281;-75
2021/09/09 07:11:31;;;;;;;14.83;9.67;;;21.30;75.20;;;;;;5030160;28;20211;-75
2021/09/09 07:13:57;;;;;;;14.60;9.73;;;21.30;76.10;;;;;;5030266;28;20691;-75
2021/09/09 07:16:23;;;;;;;23.53;10.60;;;21.30;76.40;;;;;;5029045;28;20191;-75
2021/09/09 07:18:49;;;;;;;17.43;10.03;;;21.30;76.50;;;;;;5028772;28;20669;-75
2021/09/09 07:21:14;;;;;;;15.03;10.77;;;21.30;76.70;;;;;;5022102;28;20280;-77
2021/09/09 07:23:40;;;;;;;16.20;9.97;;;21.30;77.00;;;;;;5030116;28;20187;-74
2021/09/09 07:26:06;;;;;;;16.07;9.47;;;21.30;77.40;;;;;;5026051;28;20195;-75
2021/09/09 07:28:32;;;;;;;16.43;10.27;;;21.20;77.60;;;;;;5023845;28;20426;-75
2021/09/09 07:30:57;;;;;;;18.53;11.00;;;21.30;77.80;;;;;;5025676;28;20529;-76
2021/09/09 07:33:23;;;;;;;19.00;11.47;;;21.20;78.10;;;;;;5029035;28;20657;-75
2021/09/09 07:35:49;;;;;;;16.60;11.00;;;21.30;78.30;;;;;;5029931;28;20230;-75
2021/09/09 07:38:15;;;;;;;15.23;10.10;;;21.30;78.00;;;;;;5030211;28;20237;-76
2021/09/09 07:40:41;;;;;;;19.27;11.20;;;21.40;76.70;;;;;;5029946;28;20961;-76
2021/09/09 07:43:08;;;;;;;14.67;10.77;;;21.50;76.80;;;;;;5030460;28;20575;-77
2021/09/09 07:45:34;;;;;;;18.90;11.30;;;21.50;76.70;;;;;;5030073;28;20754;-74
2021/09/09 07:48:00;;;;;;;15.47;10.40;;;21.50;76.80;;;;;;5030258;28;20527;-75
2021/09/09 07:50:26;;;;;;;14.60;10.13;;;21.60;77.40;;;;;;5032279;28;20430;-75
2021/09/09 07:52:52;;;;;;;20.47;11.20;;;21.60;78.00;;;;;;5033910;28;20529;-74
2021/09/09 07:55:18;;;;;;;15.73;9.53;;;21.70;77.40;;;;;;5022969;28;20585;-75
2021/09/09 07:57:45;;;;;;;14.30;10.30;;;21.70;77.60;;;;;;5034002;28;20904;-78
2021/09/09 08:00:13;;;;;;;15.37;10.40;;;21.90;76.10;;;;;;5035175;28;20456;-77
2021/09/09 08:02:39;;;;;;;14.07;9.47;;;22.20;74.90;;;;;;5033464;28;20440;-79
2021/09/09 08:05:05;;;;;;;13.10;8.80;;;22.50;70.50;;;;;;5033534;28;20574;-77
2021/09/09 08:07:31;;;;;;;14.40;8.97;;;22.80;69.90;;;;;;5037535;28;20187;-77
2021/09/09 08:09:56;;;;;;;14.80;9.90;;;23.10;67.30;;;;;;5041368;28;20454;-77
2021/09/09 08:12:22;;;;;;;14.50;8.80;;;23.20;67.30;;;;;;5041128;28;20257;-77
2021/09/09 08:14:48;;;;;;;13.70;8.90;;;23.40;67.30;;;;;;5041341;28;20285;-75
2021/09/09 08:17:14;;;;;;;13.00;8.90;;;23.60;67.00;;;;;;5041102;28;20195;-77
2021/09/09 08:19:40;;;;;;;12.70;8.60;;;23.70;66.40;;;;;;5038361;28;20188;-75
2021/09/09 08:22:06;;;;;;;10.50;8.37;;;24.00;65.80;;;;;;5037586;28;20488;-78
2021/09/09 08:24:32;;;;;;;13.37;8.80;;;24.10;65.30;;;;;;5034047;28;20298;-77
2021/09/09 08:26:57;;;;;;;14.13;8.90;;;24.20;65.10;;;;;;5034889;28;20189;-78
2021/09/09 08:29:23;;;;;;;14.60;8.97;;;24.30;64.40;;;;;;5031778;28;20189;-77
2021/09/09 08:31:49;;;;;;;12.97;8.47;;;24.20;64.20;;;;;;5033689;28;20251;-78
2021/09/09 08:34:14;;;;;;;11.40;7.63;;;24.10;63.70;;;;;;5033399;28;20222;-78
2021/09/09 08:36:40;;;;;;;14.93;8.73;;;24.20;63.50;;;;;;5033813;28;20615;-77
2021/09/09 08:39:06;;;;;;;12.33;8.43;;;24.20;64.10;;;;;;5034191;28;20192;-78
2021/09/09 08:41:31;;;;;;;11.07;7.93;;;24.20;63.90;;;;;;5035046;28;20395;-78
2021/09/09 08:43:57;;;;;;;17.80;8.60;;;24.10;64.10;;;;;;5035407;28;20204;-78
2021/09/09 08:46:24;;;;;;;12.63;9.00;;;24.20;64.10;;;;;;5039558;28;20215;-78
2021/09/09 08:48:49;;;;;;;13.87;8.83;;;24.10;63.50;;;;;;5041492;28;20458;-77
2021/09/09 08:51:16;;;;;;;13.30;8.80;;;24.00;63.90;;;;;;5039682;28;21018;-75
2021/09/09 08:53:44;;;;;;;14.30;9.27;;;24.10;63.90;;;;;;5037185;28;20187;-79
2021/09/09 08:56:14;;;;;;;14.10;8.90;;;24.00;64.20;;;;;;5037928;28;20425;-77
2021/09/09 08:58:39;;;;;;;12.10;7.83;;;24.00;64.40;;;;;;5040602;28;20444;-76
2021/09/09 09:01:19;;;;;;;13.00;9.63;;;24.10;64.50;;;;;;5042060;28;20487;-76
2021/09/09 09:03:53;;;;;;;12.97;8.17;;;24.10;64.50;;;;;;5039965;28;20186;-76
2021/09/09 09:06:22;;;;;;;13.73;9.27;;;24.20;64.40;;;;;;5046671;28;20426;-78
2021/09/09 09:08:50;;;;;;;11.37;8.03;;;24.30;63.80;;;;;;5052225;28;20496;-76
2021/09/09 09:11:30;;;;;;;14.93;8.53;;;24.30;63.80;;;;;;5051204;28;20460;-76
2021/09/09 09:13:57;;;;;;;17.67;9.70;;;24.40;63.70;;;;;;5049889;28;20797;-76
2021/09/09 09:16:24;;;;;;;14.03;9.00;;;24.40;63.50;;;;;;5046653;28;20438;-76
2021/09/09 09:18:50;;;;;;;13.27;8.60;;;24.50;62.80;;;;;;5044820;28;20455;-77
2021/09/09 09:21:18;;;;;;;13.23;8.43;;;24.50;63.10;;;;;;5044875;28;20421;-75
2021/09/09 09:23:56;;;;;;;12.53;8.13;;;24.60;62.90;;;;;;5046354;28;20237;-77
2021/09/09 09:26:22;;;;;;;14.00;8.87;;;24.70;62.90;;;;;;5037710;28;20457;-76
2021/09/09 09:28:53;;;;;;;13.73;8.50;;;24.80;62.00;;;;;;5038345;28;20421;-79
2021/09/09 09:31:21;;;;;;;12.20;8.47;;;24.90;61.50;;;;;;5035520;28;20983;-78
2021/09/09 09:33:51;;;;;;;13.40;7.97;;;25.00;61.30;;;;;;5036655;28;20423;-76
2021/09/09 09:36:22;;;;;;;13.30;8.37;;;25.00;60.70;;;;;;5034573;28;20801;-78
2021/09/09 09:38:49;;;;;;;14.03;9.00;;;24.90;60.60;;;;;;5034749;28;20412;-76
2021/09/09 09:41:18;;;;;;;12.07;8.73;;;24.90;61.60;;;;;;5025614;28;20475;-77
2021/09/09 09:43:52;;;;;;;12.80;8.57;;;25.10;61.70;;;;;;5033221;28;20471;-77
2021/09/09 09:46:39;;;;;;;12.20;8.53;;;25.20;60.90;;;;;;5033563;28;20967;-77
2021/09/09 09:49:15;;;;;;;11.83;8.60;;;25.30;61.00;;;;;;5030644;28;20412;-76
2021/09/09 09:51:44;;;;;;;11.40;8.27;;;25.30;61.00;;;;;;5030640;28;20468;-79
2021/09/09 09:54:12;;;;;;;12.27;9.03;;;25.30;60.70;;;;;;5033682;28;20453;-77
2021/09/09 09:56:40;;;;;;;13.00;9.30;;;25.50;61.00;;;;;;5033783;28;20475;-78
2021/09/09 09:59:06;;;;;;;12.13;8.30;;;25.60;61.00;;;;;;5038813;28;20430;-76
2021/09/09 10:01:33;;;;;;;17.07;9.00;;;25.70;60.00;;;;;;5037653;28;20445;-78
2021/09/09 10:04:04;;;;;;;12.93;8.37;;;25.70;59.60;;;;;;5035989;28;21077;-79
2021/09/09 10:06:32;;;;;;;11.40;8.60;;;25.80;59.60;;;;;;5034503;28;20473;-77
2021/09/09 10:08:58;;;;;;;11.60;8.00;;;25.80;59.20;;;;;;5041053;28;20575;-74
2021/09/09 10:11:25;;;;;;;17.53;9.47;;;25.80;59.60;;;;;;5053343;28;20515;-74
2021/09/09 10:13:51;;;;;;;13.10;8.00;;;25.80;59.90;;;;;;5054767;28;20486;-76
2021/09/09 10:16:22;;;;;;;12.80;8.97;;;25.90;58.70;;;;;;5055270;28;20449;-75
2021/09/09 10:18:47;;;;;;;14.90;8.20;;;25.90;59.10;;;;;;5056080;28;20434;-74
2021/09/09 10:21:40;;;;;;;9.20;7.63;;;26.10;58.90;;;;;;5052054;28;20431;-75
2021/09/09 10:24:27;;;;;;;12.60;7.87;;;26.20;58.20;;;;;;5055047;28;20209;-74
2021/09/09 10:27:16;;;;;;;10.93;8.00;;;26.40;57.80;;;;;;5052771;28;20458;-76
2021/09/09 10:29:41;;;;;;;12.07;8.20;;;26.50;57.00;;;;;;5054994;28;20436;-76
2021/09/09 10:32:33;;;;;;;10.97;6.80;;;26.70;56.50;;;;;;5054850;28;20483;-74
2021/09/09 10:35:17;;;;;;;13.60;7.90;;;26.80;55.80;;;;;;5043900;28;20310;-76
2021/09/09 10:37:48;;;;;;;12.63;7.80;;;26.90;55.40;;;;;;5044779;28;20533;-78
2021/09/09 10:40:35;;;;;;;11.87;7.70;;;27.00;55.60;;;;;;5038765;28;20426;-76
2021/09/09 10:43:02;;;;;;;13.00;7.40;;;27.20;55.30;;;;;;5036866;28;20496;-79
2021/09/09 10:45:33;;;;;;;11.37;7.27;;;27.50;55.00;;;;;;5031819;28;20466;-80
2021/09/09 10:48:03;;;;;;;11.20;7.70;;;27.90;54.20;;;;;;5037867;28;20634;-78
2021/09/09 10:50:29;;;;;;;9.13;7.27;;;28.10;53.40;;;;;;5037062;28;20420;-77
2021/09/09 10:53:10;;;;;;;12.10;7.10;;;28.00;53.70;;;;;;5032328;28;20468;-78
2021/09/09 10:55:37;;;;;;;10.37;7.30;;;28.00;53.00;;;;;;5029225;28;20911;-76
2021/09/09 10:58:13;;;;;;;10.43;7.20;;;28.10;53.00;;;;;;5026271;28;20412;-79
2021/09/09 11:00:54;;;;;;;9.23;6.93;;;28.50;52.90;;;;;;5023325;28;20424;-77
2021/09/09 11:03:39;;;;;;;9.30;7.07;;;28.70;51.70;;;;;;5030642;28;20416;-76
2021/09/09 11:06:08;;;;;;;11.87;7.13;;;28.70;51.00;;;;;;5029760;28;20423;-78
2021/09/09 11:08:34;;;;;;;12.63;6.70;;;28.50;51.40;;;;;;5022518;28;20428;-75
2021/09/09 11:11:00;;;;;;;10.50;6.97;;;28.10;52.40;;;;;;5030258;28;20428;-77
2021/09/09 11:13:29;;;;;;;9.40;6.87;;;28.20;52.60;;;;;;5030055;28;20494;-76
2021/09/09 11:15:55;;;;;;;8.80;6.53;;;28.30;52.20;;;;;;5031009;28;20444;-76
2021/09/09 11:18:29;;;;;;;9.10;7.17;;;28.60;51.70;;;;;;5029136;28;20444;-76
2021/09/09 11:21:05;;;;;;;12.17;7.10;;;28.90;51.20;;;;;;5030509;28;20432;-77
2021/09/09 11:23:32;;;;;;;11.23;7.10;;;29.00;50.60;;;;;;5022442;28;20890;-76
2021/09/09 11:26:13;;;;;;;11.27;6.93;;;28.90;50.60;;;;;;5031085;28;20459;-76
2021/09/09 11:28:39;;;;;;;9.80;7.30;;;28.70;51.40;;;;;;5026448;28;21077;-77
2021/09/09 11:31:05;;;;;;;10.63;6.87;;;28.70;51.70;;;;;;5025392;28;20436;-77
2021/09/09 11:33:31;;;;;;;13.00;7.40;;;28.70;51.70;;;;;;5029825;28;20495;-77
2021/09/09 11:36:01;;;;;;;9.87;6.60;;;28.60;52.50;;;;;;5030617;28;20221;-77
2021/09/09 11:38:33;;;;;;;8.70;6.77;;;28.80;51.80;;;;;;5032752;28;20178;-77
2021/09/09 11:41:13;;;;;;;9.40;6.90;;;28.80;51.60;;;;;;5033803;28;21144;-77
2021/09/09 11:43:53;;;;;;;9.67;7.20;;;28.70;51.40;;;;;;5038073;28;20469;-75
2021/09/09 11:46:24;;;;;;;9.23;6.13;;;28.60;51.70;;;;;;5037025;28;20929;-77
2021/09/09 11:48:54;;;;;;;10.00;6.83;;;28.80;51.80;;;;;;5031107;28;20532;-76
2021/09/09 11:51:35;;;;;;;8.60;6.50;;;28.80;51.60;;;;;;5035509;28;20495;-78
2021/09/09 11:54:02;;;;;;;11.67;6.47;;;28.70;51.40;;;;;;5034429;28;20439;-76
2021/09/09 11:56:27;;;;;;;10.10;5.90;;;28.70;51.60;;;;;;5036106;28;20423;-76
2021/09/09 11:58:53;;;;;;;8.97;6.37;;;28.60;51.00;;;;;;5036951;28;20420;-78
2021/09/09 12:01:20;;;;;;;12.00;6.70;;;28.70;51.40;;;;;;5030692;28;20197;-77
2021/09/09 12:03:46;;;;;;;7.97;6.33;;;29.00;50.10;;;;;;5026705;28;20486;-75
2021/09/09 12:06:15;;;;;;;10.10;6.37;;;28.90;50.50;;;;;;5033540;28;20431;-77
2021/09/09 12:08:45;;;;;;;11.20;6.40;;;28.70;50.20;;;;;;5029401;28;20423;-76
2021/09/09 12:11:12;;;;;;;8.80;6.03;;;28.70;51.00;;;;;;5029375;28;20555;-76
2021/09/09 12:13:40;;;;;;;7.63;6.27;;;28.80;50.90;;;;;;5029057;28;20442;-77
2021/09/09 12:16:12;;;;;;;9.23;6.20;;;28.90;50.60;;;;;;5030436;28;20420;-74
2021/09/09 12:18:38;;;;;;;7.07;5.67;;;28.90;50.30;;;;;;5030974;28;20416;-77
2021/09/09 12:21:13;;;;;;;10.53;6.97;;;28.70;50.10;;;;;;5030214;28;20520;-76
2021/09/09 12:23:58;;;;;;;9.43;7.23;;;28.60;50.70;;;;;;5027853;28;20946;-76
2021/09/09 12:26:24;;;;;;;10.47;7.50;;;28.80;50.10;;;;;;5024146;28;20481;-78
2021/09/09 12:28:50;;;;;;;7.83;6.23;;;29.00;49.40;;;;;;5024377;28;20425;-76
2021/09/09 12:31:33;;;;;;;10.57;6.43;;;28.90;49.50;;;;;;5028928;28;20262;-76